Paris, Franţa

11:38 PM CET on octombrie 31, 2014 (GMT +0100)
Charles de Gaulle | Change Station
CLOSE
Current Station
Aeroport
Location: Paris / Charles De Gaulle,
Elevation: 367 ft
Nearby Weather Stations

Elev 367 ft 49.02 °N, 2.53 °E | Updated 8 minutes ago

Clear
Cer senin
59 °F
Feels Like 59 °F
N
8
Vânt variabil Vânt from SSE

astăzi
High -- | Low -- °F
--% Chance of Precip.
Ieri
High -- | Low -- °F
Precip. -- inch
7:35 AM 5:31 PM
Primul pătrar, 59% visible
Presiunea 30.12 inch
Vizibilitatea -9999.0 mile
Nori
Punctul de rouă 54 °F
Umiditatea 82%
Precipitaţii 0.00 inch
Adâncimea zăpezii Not available.
UV Not available.
Pollen Not available.
Calitatea aerului Not available.
Flu Activity Not available.
METAR LFPG 312230Z 15007KT CAVOK 15/12 Q1020 NOSIG

More Conditions Fewer Conditions

Presiunea 30.12 inch
Vizibilitatea -9999.0 mile
Nori
Punctul de rouă 54 °F
Umiditatea 82%
Precipitaţii 0.00 inch
Adâncimea zăpezii Not available.
UV Not available.
Pollen Not available.
Calitatea aerului Not available.
Flu Activity Not available.
METAR LFPG 312230Z 15007KT CAVOK 15/12 Q1020 NOSIG

More Conditions Fewer Conditions

10-Day Weather Forecast

Almanac

Astronomie

Oct. 31, 2014 Răsărit Apus
Timpul Actual
Crepusculul Civil
Crepusculul nautic
Răsărit Astronomic
Luna
Durata zilei lumină
Lungimea zilei
Tomorrow will be .
, % of the Moon is Illuminated

Extremele de azi

Country Highs Country Lows

Community

WunderPhotos

Upload Photos

1,766,770 photos uploaded!

WunderBlogs® & News

Nearby

Calitatea aerului

  Calitatea aerului Index de calitate a aerului Poluat
Not available.

Adâncimea zapezii

Station Depth Elevation

Earthquake Activity

Oraş Distance Mag. Time & Date
Minimum magnitude displayed is 2.5.

Coastal Water Temperatures

Locul Temperatura

Nearby Weather Stations